sensor_id;sensor_type;location;lat;lon;timestamp;P1;durP1;ratioP1;P2;durP2;ratioP2
36001;SDS011;22070;50.922;5.430;2022-11-14T00:02:12;20.10;;;8.57;;
36001;SDS011;22070;50.922;5.430;2022-11-14T00:04:41;17.63;;;9.13;;
36001;SDS011;22070;50.922;5.430;2022-11-14T00:07:10;16.45;;;9.52;;
36001;SDS011;22070;50.922;5.430;2022-11-14T00:09:35;21.60;;;10.13;;
36001;SDS011;22070;50.922;5.430;2022-11-14T00:12:02;16.67;;;8.82;;
36001;SDS011;22070;50.922;5.430;2022-11-14T00:14:28;17.27;;;9.87;;
36001;SDS011;22070;50.922;5.430;2022-11-14T00:16:54;18.70;;;10.17;;
36001;SDS011;22070;50.922;5.430;2022-11-14T00:19:20;13.75;;;8.57;;
36001;SDS011;22070;50.922;5.430;2022-11-14T00:21:46;18.42;;;10.00;;
36001;SDS011;22070;50.922;5.430;2022-11-14T00:24:11;20.17;;;9.82;;
36001;SDS011;22070;50.922;5.430;2022-11-14T00:26:37;14.95;;;8.52;;
36001;SDS011;22070;50.922;5.430;2022-11-14T00:29:03;14.63;;;8.35;;
36001;SDS011;22070;50.922;5.430;2022-11-14T00:31:29;14.37;;;8.53;;
36001;SDS011;22070;50.922;5.430;2022-11-14T00:33:55;18.80;;;8.32;;
36001;SDS011;22070;50.922;5.430;2022-11-14T00:36:20;17.00;;;8.65;;
36001;SDS011;22070;50.922;5.430;2022-11-14T00:38:46;17.13;;;8.68;;
36001;SDS011;22070;50.922;5.430;2022-11-14T00:41:11;14.85;;;8.40;;
36001;SDS011;22070;50.922;5.430;2022-11-14T00:43:37;17.10;;;8.57;;
36001;SDS011;22070;50.922;5.430;2022-11-14T00:46:03;14.43;;;8.15;;
36001;SDS011;22070;50.922;5.430;2022-11-14T00:48:28;17.48;;;8.63;;
36001;SDS011;22070;50.922;5.430;2022-11-14T00:50:54;19.48;;;10.35;;
36001;SDS011;22070;50.922;5.430;2022-11-14T00:53:19;17.83;;;9.88;;
36001;SDS011;22070;50.922;5.430;2022-11-14T00:55:45;20.00;;;9.80;;
36001;SDS011;22070;50.922;5.430;2022-11-14T00:58:11;16.50;;;8.50;;
36001;SDS011;22070;50.922;5.430;2022-11-14T01:00:37;14.68;;;8.77;;
36001;SDS011;22070;50.922;5.430;2022-11-14T01:03:03;16.15;;;8.80;;
36001;SDS011;22070;50.922;5.430;2022-11-14T01:05:28;15.57;;;9.32;;
36001;SDS011;22070;50.922;5.430;2022-11-14T01:07:54;19.83;;;9.07;;
36001;SDS011;22070;50.922;5.430;2022-11-14T01:10:21;16.35;;;8.55;;
36001;SDS011;22070;50.922;5.430;2022-11-14T01:12:47;16.88;;;8.60;;
36001;SDS011;22070;50.922;5.430;2022-11-14T01:15:13;15.68;;;8.00;;
36001;SDS011;22070;50.922;5.430;2022-11-14T01:17:38;14.45;;;9.13;;
36001;SDS011;22070;50.922;5.430;2022-11-14T01:20:04;15.88;;;8.93;;
36001;SDS011;22070;50.922;5.430;2022-11-14T01:22:30;14.25;;;8.15;;
36001;SDS011;22070;50.922;5.430;2022-11-14T01:24:56;20.08;;;8.98;;
36001;SDS011;22070;50.922;5.430;2022-11-14T01:27:23;18.17;;;8.88;;
36001;SDS011;22070;50.922;5.430;2022-11-14T01:29:49;17.67;;;9.73;;
36001;SDS011;22070;50.922;5.430;2022-11-14T01:32:15;11.75;;;6.47;;
36001;SDS011;22070;50.922;5.430;2022-11-14T01:34:40;16.20;;;8.13;;
36001;SDS011;22070;50.922;5.430;2022-11-14T01:37:06;18.20;;;8.40;;
36001;SDS011;22070;50.922;5.430;2022-11-14T01:39:32;16.65;;;8.25;;
36001;SDS011;22070;50.922;5.430;2022-11-14T01:41:58;13.57;;;7.75;;
36001;SDS011;22070;50.922;5.430;2022-11-14T01:47:23;14.07;;;8.90;;
36001;SDS011;22070;50.922;5.430;2022-11-14T01:49:59;16.27;;;7.95;;
36001;SDS011;22070;50.922;5.430;2022-11-14T01:52:35;17.30;;;9.00;;
36001;SDS011;22070;50.922;5.430;2022-11-14T01:55:07;15.25;;;8.38;;
36001;SDS011;22070;50.922;5.430;2022-11-14T01:57:39;14.57;;;8.55;;
36001;SDS011;22070;50.922;5.430;2022-11-14T02:00:09;16.23;;;8.77;;
36001;SDS011;22070;50.922;5.430;2022-11-14T02:02:36;17.00;;;8.45;;
36001;SDS011;22070;50.922;5.430;2022-11-14T02:05:04;18.48;;;8.23;;
36001;SDS011;22070;50.922;5.430;2022-11-14T02:07:33;17.80;;;8.30;;
36001;SDS011;22070;50.922;5.430;2022-11-14T02:10:03;15.32;;;8.65;;
36001;SDS011;22070;50.922;5.430;2022-11-14T02:12:31;17.67;;;9.02;;
36001;SDS011;22070;50.922;5.430;2022-11-14T02:14:57;13.48;;;7.90;;
36001;SDS011;22070;50.922;5.430;2022-11-14T02:17:24;15.18;;;8.98;;
36001;SDS011;22070;50.922;5.430;2022-11-14T02:22:18;14.10;;;8.23;;
36001;SDS011;22070;50.922;5.430;2022-11-14T02:24:43;14.90;;;8.30;;
36001;SDS011;22070;50.922;5.430;2022-11-14T02:27:09;13.15;;;8.27;;
36001;SDS011;22070;50.922;5.430;2022-11-14T02:32:02;14.67;;;8.77;;
36001;SDS011;22070;50.922;5.430;2022-11-14T02:34:28;16.60;;;8.63;;
36001;SDS011;22070;50.922;5.430;2022-11-14T02:36:54;15.05;;;8.65;;
36001;SDS011;22070;50.922;5.430;2022-11-14T02:39:20;16.23;;;9.07;;
36001;SDS011;22070;50.922;5.430;2022-11-14T02:41:46;15.73;;;8.48;;
36001;SDS011;22070;50.922;5.430;2022-11-14T02:44:13;14.13;;;8.75;;
36001;SDS011;22070;50.922;5.430;2022-11-14T02:46:39;10.00;;;5.88;;
36001;SDS011;22070;50.922;5.430;2022-11-14T02:49:04;12.43;;;6.97;;
36001;SDS011;22070;50.922;5.430;2022-11-14T02:51:30;15.15;;;8.40;;
36001;SDS011;22070;50.922;5.430;2022-11-14T02:53:55;19.20;;;9.07;;
36001;SDS011;22070;50.922;5.430;2022-11-14T02:56:21;16.95;;;8.85;;
36001;SDS011;22070;50.922;5.430;2022-11-14T02:58:47;16.55;;;8.48;;
36001;SDS011;22070;50.922;5.430;2022-11-14T03:01:12;15.52;;;7.93;;
36001;SDS011;22070;50.922;5.430;2022-11-14T03:03:38;17.83;;;8.32;;
36001;SDS011;22070;50.922;5.430;2022-11-14T03:06:04;15.02;;;8.60;;
36001;SDS011;22070;50.922;5.430;2022-11-14T03:08:30;12.73;;;7.97;;
36001;SDS011;22070;50.922;5.430;2022-11-14T03:11:02;15.82;;;8.30;;
36001;SDS011;22070;50.922;5.430;2022-11-14T03:13:28;15.45;;;7.45;;
36001;SDS011;22070;50.922;5.430;2022-11-14T03:15:54;16.33;;;8.32;;
36001;SDS011;22070;50.922;5.430;2022-11-14T03:18:20;16.40;;;7.97;;
36001;SDS011;22070;50.922;5.430;2022-11-14T03:20:46;15.02;;;8.73;;
36001;SDS011;22070;50.922;5.430;2022-11-14T03:23:11;13.45;;;7.82;;
36001;SDS011;22070;50.922;5.430;2022-11-14T03:25:37;17.70;;;8.43;;
36001;SDS011;22070;50.922;5.430;2022-11-14T03:28:02;16.13;;;8.90;;
36001;SDS011;22070;50.922;5.430;2022-11-14T03:30:28;12.70;;;8.00;;
36001;SDS011;22070;50.922;5.430;2022-11-14T03:32:55;12.55;;;8.00;;
36001;SDS011;22070;50.922;5.430;2022-11-14T03:35:21;13.93;;;8.30;;
36001;SDS011;22070;50.922;5.430;2022-11-14T03:37:47;13.60;;;8.50;;
36001;SDS011;22070;50.922;5.430;2022-11-14T03:40:13;14.88;;;8.05;;
36001;SDS011;22070;50.922;5.430;2022-11-14T03:42:39;16.00;;;8.43;;
36001;SDS011;22070;50.922;5.430;2022-11-14T03:45:05;14.88;;;8.20;;
36001;SDS011;22070;50.922;5.430;2022-11-14T03:47:30;14.23;;;8.32;;
36001;SDS011;22070;50.922;5.430;2022-11-14T03:49:56;16.08;;;8.38;;
36001;SDS011;22070;50.922;5.430;2022-11-14T03:52:22;15.57;;;8.48;;
36001;SDS011;22070;50.922;5.430;2022-11-14T03:54:50;13.70;;;8.32;;
36001;SDS011;22070;50.922;5.430;2022-11-14T03:57:16;14.15;;;8.52;;
36001;SDS011;22070;50.922;5.430;2022-11-14T03:59:41;17.33;;;8.55;;
36001;SDS011;22070;50.922;5.430;2022-11-14T04:02:07;17.77;;;8.43;;
36001;SDS011;22070;50.922;5.430;2022-11-14T04:04:33;14.93;;;8.40;;
36001;SDS011;22070;50.922;5.430;2022-11-14T04:06:58;15.18;;;8.55;;
36001;SDS011;22070;50.922;5.430;2022-11-14T04:09:24;13.82;;;8.48;;
36001;SDS011;22070;50.922;5.430;2022-11-14T04:11:50;12.10;;;7.57;;
36001;SDS011;22070;50.922;5.430;2022-11-14T04:14:15;13.02;;;8.25;;
36001;SDS011;22070;50.922;5.430;2022-11-14T04:16:41;12.97;;;7.83;;
36001;SDS011;22070;50.922;5.430;2022-11-14T04:19:06;15.23;;;8.98;;
36001;SDS011;22070;50.922;5.430;2022-11-14T04:21:32;15.00;;;8.20;;
36001;SDS011;22070;50.922;5.430;2022-11-14T04:23:58;13.65;;;8.30;;
36001;SDS011;22070;50.922;5.430;2022-11-14T04:26:23;14.25;;;8.32;;
36001;SDS011;22070;50.922;5.430;2022-11-14T04:28:49;12.88;;;6.22;;
36001;SDS011;22070;50.922;5.430;2022-11-14T04:31:15;15.88;;;8.30;;
36001;SDS011;22070;50.922;5.430;2022-11-14T04:33:40;13.70;;;8.35;;
36001;SDS011;22070;50.922;5.430;2022-11-14T04:36:06;16.65;;;8.20;;
36001;SDS011;22070;50.922;5.430;2022-11-14T04:38:32;14.65;;;8.65;;
36001;SDS011;22070;50.922;5.430;2022-11-14T04:40:57;14.52;;;8.15;;
36001;SDS011;22070;50.922;5.430;2022-11-14T04:43:23;14.38;;;8.30;;
36001;SDS011;22070;50.922;5.430;2022-11-14T04:45:48;14.60;;;7.45;;
36001;SDS011;22070;50.922;5.430;2022-11-14T04:48:14;15.65;;;7.82;;
36001;SDS011;22070;50.922;5.430;2022-11-14T04:50:40;14.43;;;7.82;;
36001;SDS011;22070;50.922;5.430;2022-11-14T04:53:06;13.95;;;8.10;;
36001;SDS011;22070;50.922;5.430;2022-11-14T04:55:31;15.30;;;8.55;;
36001;SDS011;22070;50.922;5.430;2022-11-14T04:57:57;20.30;;;8.55;;
36001;SDS011;22070;50.922;5.430;2022-11-14T05:00:23;15.98;;;8.00;;
36001;SDS011;22070;50.922;5.430;2022-11-14T05:02:49;14.73;;;8.20;;
36001;SDS011;22070;50.922;5.430;2022-11-14T05:05:15;12.60;;;7.35;;
36001;SDS011;22070;50.922;5.430;2022-11-14T05:07:41;15.60;;;8.45;;
36001;SDS011;22070;50.922;5.430;2022-11-14T05:10:07;14.93;;;7.55;;
36001;SDS011;22070;50.922;5.430;2022-11-14T05:12:33;18.98;;;8.27;;
36001;SDS011;22070;50.922;5.430;2022-11-14T05:14:59;14.52;;;9.02;;
36001;SDS011;22070;50.922;5.430;2022-11-14T05:17:25;14.02;;;7.47;;
36001;SDS011;22070;50.922;5.430;2022-11-14T05:19:51;14.93;;;8.17;;
36001;SDS011;22070;50.922;5.430;2022-11-14T05:22:16;13.30;;;7.55;;
36001;SDS011;22070;50.922;5.430;2022-11-14T05:24:42;15.73;;;7.93;;
36001;SDS011;22070;50.922;5.430;2022-11-14T05:27:08;14.18;;;7.65;;
36001;SDS011;22070;50.922;5.430;2022-11-14T05:29:33;14.25;;;7.78;;
36001;SDS011;22070;50.922;5.430;2022-11-14T05:31:59;16.73;;;7.43;;
36001;SDS011;22070;50.922;5.430;2022-11-14T05:34:25;15.05;;;7.70;;
36001;SDS011;22070;50.922;5.430;2022-11-14T05:36:51;13.43;;;5.82;;
36001;SDS011;22070;50.922;5.430;2022-11-14T05:39:17;13.20;;;7.70;;
36001;SDS011;22070;50.922;5.430;2022-11-14T05:41:42;15.07;;;8.02;;
36001;SDS011;22070;50.922;5.430;2022-11-14T05:44:08;17.17;;;8.70;;
36001;SDS011;22070;50.922;5.430;2022-11-14T05:46:34;17.90;;;8.55;;
36001;SDS011;22070;50.922;5.430;2022-11-14T05:48:59;13.70;;;7.93;;
36001;SDS011;22070;50.922;5.430;2022-11-14T05:51:25;14.60;;;7.47;;
36001;SDS011;22070;50.922;5.430;2022-11-14T05:53:51;14.63;;;8.02;;
36001;SDS011;22070;50.922;5.430;2022-11-14T05:56:17;12.65;;;7.72;;
36001;SDS011;22070;50.922;5.430;2022-11-14T05:58:42;15.02;;;8.18;;
36001;SDS011;22070;50.922;5.430;2022-11-14T06:01:10;16.17;;;7.70;;
36001;SDS011;22070;50.922;5.430;2022-11-14T06:03:38;13.45;;;7.82;;
36001;SDS011;22070;50.922;5.430;2022-11-14T06:06:07;11.65;;;7.13;;
36001;SDS011;22070;50.922;5.430;2022-11-14T06:08:33;15.07;;;8.45;;
36001;SDS011;22070;50.922;5.430;2022-11-14T06:11:01;18.35;;;8.07;;
36001;SDS011;22070;50.922;5.430;2022-11-14T06:13:31;12.15;;;7.07;;
36001;SDS011;22070;50.922;5.430;2022-11-14T06:15:57;16.02;;;8.48;;
36001;SDS011;22070;50.922;5.430;2022-11-14T06:18:26;16.73;;;8.07;;
36001;SDS011;22070;50.922;5.430;2022-11-14T06:20:53;12.63;;;7.95;;
36001;SDS011;22070;50.922;5.430;2022-11-14T06:23:22;15.85;;;8.50;;
36001;SDS011;22070;50.922;5.430;2022-11-14T06:25:48;24.42;;;8.98;;
36001;SDS011;22070;50.922;5.430;2022-11-14T06:28:14;21.02;;;9.68;;
36001;SDS011;22070;50.922;5.430;2022-11-14T06:30:39;16.55;;;9.18;;
36001;SDS011;22070;50.922;5.430;2022-11-14T06:33:05;16.13;;;9.40;;
36001;SDS011;22070;50.922;5.430;2022-11-14T06:35:31;17.75;;;9.02;;
36001;SDS011;22070;50.922;5.430;2022-11-14T06:37:58;23.67;;;9.70;;
36001;SDS011;22070;50.922;5.430;2022-11-14T06:40:24;17.75;;;9.50;;
36001;SDS011;22070;50.922;5.430;2022-11-14T06:42:49;20.05;;;9.40;;
36001;SDS011;22070;50.922;5.430;2022-11-14T06:45:15;19.58;;;8.95;;
36001;SDS011;22070;50.922;5.430;2022-11-14T06:47:41;13.95;;;8.95;;
36001;SDS011;22070;50.922;5.430;2022-11-14T06:50:06;18.55;;;9.63;;
36001;SDS011;22070;50.922;5.430;2022-11-14T06:52:32;20.00;;;10.73;;
36001;SDS011;22070;50.922;5.430;2022-11-14T06:54:58;24.02;;;12.88;;
36001;SDS011;22070;50.922;5.430;2022-11-14T06:57:23;22.55;;;12.77;;
36001;SDS011;22070;50.922;5.430;2022-11-14T06:59:49;21.25;;;11.02;;
36001;SDS011;22070;50.922;5.430;2022-11-14T07:02:15;20.92;;;10.77;;
36001;SDS011;22070;50.922;5.430;2022-11-14T07:04:40;16.60;;;9.35;;
36001;SDS011;22070;50.922;5.430;2022-11-14T07:07:06;15.55;;;9.68;;
36001;SDS011;22070;50.922;5.430;2022-11-14T07:09:32;20.43;;;9.97;;
36001;SDS011;22070;50.922;5.430;2022-11-14T07:11:57;18.50;;;9.82;;
36001;SDS011;22070;50.922;5.430;2022-11-14T07:14:23;13.38;;;8.75;;
36001;SDS011;22070;50.922;5.430;2022-11-14T07:16:48;20.60;;;9.60;;
36001;SDS011;22070;50.922;5.430;2022-11-14T07:19:14;18.10;;;9.18;;
36001;SDS011;22070;50.922;5.430;2022-11-14T07:21:40;22.67;;;9.63;;
36001;SDS011;22070;50.922;5.430;2022-11-14T07:24:06;18.33;;;8.95;;
36001;SDS011;22070;50.922;5.430;2022-11-14T07:26:31;17.05;;;9.02;;
36001;SDS011;22070;50.922;5.430;2022-11-14T07:28:57;18.95;;;9.23;;
36001;SDS011;22070;50.922;5.430;2022-11-14T07:31:23;19.38;;;8.43;;
36001;SDS011;22070;50.922;5.430;2022-11-14T07:33:48;23.65;;;9.43;;
36001;SDS011;22070;50.922;5.430;2022-11-14T07:36:14;13.35;;;8.05;;
36001;SDS011;22070;50.922;5.430;2022-11-14T07:38:41;16.17;;;8.63;;
36001;SDS011;22070;50.922;5.430;2022-11-14T07:41:08;18.70;;;8.10;;
36001;SDS011;22070;50.922;5.430;2022-11-14T07:43:35;21.00;;;8.65;;
36001;SDS011;22070;50.922;5.430;2022-11-14T07:46:05;21.30;;;8.43;;
36001;SDS011;22070;50.922;5.430;2022-11-14T07:48:35;20.58;;;9.27;;
36001;SDS011;22070;50.922;5.430;2022-11-14T07:51:01;24.13;;;9.65;;
36001;SDS011;22070;50.922;5.430;2022-11-14T07:53:28;16.15;;;8.75;;
36001;SDS011;22070;50.922;5.430;2022-11-14T07:55:54;17.30;;;9.55;;
36001;SDS011;22070;50.922;5.430;2022-11-14T07:58:21;20.40;;;9.25;;
36001;SDS011;22070;50.922;5.430;2022-11-14T08:00:47;18.23;;;9.35;;
36001;SDS011;22070;50.922;5.430;2022-11-14T08:03:12;16.52;;;9.05;;
36001;SDS011;22070;50.922;5.430;2022-11-14T08:05:38;17.58;;;9.00;;
36001;SDS011;22070;50.922;5.430;2022-11-14T08:08:04;17.45;;;9.40;;
36001;SDS011;22070;50.922;5.430;2022-11-14T08:10:30;20.55;;;9.90;;
36001;SDS011;22070;50.922;5.430;2022-11-14T08:12:56;17.77;;;9.88;;
36001;SDS011;22070;50.922;5.430;2022-11-14T08:15:23;18.05;;;9.05;;
36001;SDS011;22070;50.922;5.430;2022-11-14T08:17:48;18.48;;;9.90;;
36001;SDS011;22070;50.922;5.430;2022-11-14T08:20:14;15.65;;;9.23;;
36001;SDS011;22070;50.922;5.430;2022-11-14T08:22:40;20.75;;;9.55;;
36001;SDS011;22070;50.922;5.430;2022-11-14T08:25:05;20.55;;;9.80;;
36001;SDS011;22070;50.922;5.430;2022-11-14T08:27:31;17.67;;;9.80;;
36001;SDS011;22070;50.922;5.430;2022-11-14T08:29:57;18.48;;;9.63;;
36001;SDS011;22070;50.922;5.430;2022-11-14T08:32:23;16.90;;;9.32;;
36001;SDS011;22070;50.922;5.430;2022-11-14T08:34:48;19.63;;;10.05;;
36001;SDS011;22070;50.922;5.430;2022-11-14T08:37:14;20.95;;;10.63;;
36001;SDS011;22070;50.922;5.430;2022-11-14T08:39:40;17.50;;;10.32;;
36001;SDS011;22070;50.922;5.430;2022-11-14T08:42:05;19.88;;;10.43;;
36001;SDS011;22070;50.922;5.430;2022-11-14T08:44:31;19.85;;;10.55;;
36001;SDS011;22070;50.922;5.430;2022-11-14T08:46:56;31.02;;;12.05;;
36001;SDS011;22070;50.922;5.430;2022-11-14T08:49:24;20.02;;;11.15;;
36001;SDS011;22070;50.922;5.430;2022-11-14T08:51:51;21.58;;;11.48;;
36001;SDS011;22070;50.922;5.430;2022-11-14T08:54:17;20.55;;;10.75;;
36001;SDS011;22070;50.922;5.430;2022-11-14T08:56:43;19.65;;;10.23;;
36001;SDS011;22070;50.922;5.430;2022-11-14T08:59:09;17.10;;;9.75;;
36001;SDS011;22070;50.922;5.430;2022-11-14T09:01:35;20.30;;;10.80;;
36001;SDS011;22070;50.922;5.430;2022-11-14T09:04:00;20.45;;;11.18;;
36001;SDS011;22070;50.922;5.430;2022-11-14T09:06:26;17.88;;;10.05;;
36001;SDS011;22070;50.922;5.430;2022-11-14T09:08:52;17.58;;;10.82;;
36001;SDS011;22070;50.922;5.430;2022-11-14T09:11:17;12.55;;;7.40;;
36001;SDS011;22070;50.922;5.430;2022-11-14T09:13:43;19.13;;;10.48;;
36001;SDS011;22070;50.922;5.430;2022-11-14T09:16:09;17.70;;;10.57;;
36001;SDS011;22070;50.922;5.430;2022-11-14T09:18:34;22.05;;;10.48;;
36001;SDS011;22070;50.922;5.430;2022-11-14T09:21:04;21.45;;;10.13;;
36001;SDS011;22070;50.922;5.430;2022-11-14T09:23:32;15.18;;;9.25;;
36001;SDS011;22070;50.922;5.430;2022-11-14T09:26:02;20.83;;;9.35;;
36001;SDS011;22070;50.922;5.430;2022-11-14T09:28:29;17.15;;;8.70;;
36001;SDS011;22070;50.922;5.430;2022-11-14T09:30:59;12.70;;;8.20;;
36001;SDS011;22070;50.922;5.430;2022-11-14T09:33:28;16.63;;;7.78;;
36001;SDS011;22070;50.922;5.430;2022-11-14T09:35:58;13.90;;;7.77;;
36001;SDS011;22070;50.922;5.430;2022-11-14T09:38:25;15.43;;;7.50;;
36001;SDS011;22070;50.922;5.430;2022-11-14T09:48:55;14.18;;;7.95;;
36001;SDS011;22070;50.922;5.430;2022-11-14T09:51:22;13.15;;;7.80;;
36001;SDS011;22070;50.922;5.430;2022-11-14T09:56:47;13.15;;;7.97;;
36001;SDS011;22070;50.922;5.430;2022-11-14T09:59:13;12.68;;;7.80;;
36001;SDS011;22070;50.922;5.430;2022-11-14T10:04:19;13.00;;;7.93;;
36001;SDS011;22070;50.922;5.430;2022-11-14T10:12:21;14.23;;;8.75;;
36001;SDS011;22070;50.922;5.430;2022-11-14T10:20:20;16.55;;;8.73;;
36001;SDS011;22070;50.922;5.430;2022-11-14T10:23:13;15.60;;;8.30;;
36001;SDS011;22070;50.922;5.430;2022-11-14T10:26:06;15.43;;;9.13;;
36001;SDS011;22070;50.922;5.430;2022-11-14T10:29:00;16.45;;;9.38;;
36001;SDS011;22070;50.922;5.430;2022-11-14T10:31:47;18.73;;;9.85;;
36001;SDS011;22070;50.922;5.430;2022-11-14T10:34:25;17.13;;;9.80;;
36001;SDS011;22070;50.922;5.430;2022-11-14T10:39:54;21.70;;;10.27;;
36001;SDS011;22070;50.922;5.430;2022-11-14T10:42:30;18.80;;;10.15;;
36001;SDS011;22070;50.922;5.430;2022-11-14T10:45:00;20.35;;;10.38;;
36001;SDS011;22070;50.922;5.430;2022-11-14T10:47:47;22.85;;;11.35;;
36001;SDS011;22070;50.922;5.430;2022-11-14T10:50:18;21.52;;;11.07;;
36001;SDS011;22070;50.922;5.430;2022-11-14T10:52:47;23.13;;;10.98;;
36001;SDS011;22070;50.922;5.430;2022-11-14T10:55:20;18.98;;;10.00;;
36001;SDS011;22070;50.922;5.430;2022-11-14T10:57:46;21.65;;;10.13;;
36001;SDS011;22070;50.922;5.430;2022-11-14T11:00:12;21.88;;;11.45;;
36001;SDS011;22070;50.922;5.430;2022-11-14T11:02:47;19.90;;;11.00;;
36001;SDS011;22070;50.922;5.430;2022-11-14T11:05:16;19.98;;;10.20;;
36001;SDS011;22070;50.922;5.430;2022-11-14T11:07:44;20.35;;;10.70;;
36001;SDS011;22070;50.922;5.430;2022-11-14T11:10:30;22.38;;;10.57;;
36001;SDS011;22070;50.922;5.430;2022-11-14T11:13:32;20.20;;;10.95;;
36001;SDS011;22070;50.922;5.430;2022-11-14T11:16:04;19.70;;;10.77;;
36001;SDS011;22070;50.922;5.430;2022-11-14T11:18:31;20.15;;;10.93;;
36001;SDS011;22070;50.922;5.430;2022-11-14T11:21:02;20.60;;;10.85;;
36001;SDS011;22070;50.922;5.430;2022-11-14T11:23:52;18.30;;;10.60;;
36001;SDS011;22070;50.922;5.430;2022-11-14T11:26:29;20.02;;;10.82;;
36001;SDS011;22070;50.922;5.430;2022-11-14T11:29:15;17.88;;;10.85;;
36001;SDS011;22070;50.922;5.430;2022-11-14T11:34:32;19.55;;;10.40;;
36001;SDS011;22070;50.922;5.430;2022-11-14T11:37:10;22.40;;;11.30;;
36001;SDS011;22070;50.922;5.430;2022-11-14T11:39:56;25.33;;;11.73;;
36001;SDS011;22070;50.922;5.430;2022-11-14T11:42:33;16.98;;;9.98;;
36001;SDS011;22070;50.922;5.430;2022-11-14T11:45:03;22.15;;;10.65;;
36001;SDS011;22070;50.922;5.430;2022-11-14T11:47:36;19.48;;;10.93;;
36001;SDS011;22070;50.922;5.430;2022-11-14T11:50:10;17.55;;;10.05;;
36001;SDS011;22070;50.922;5.430;2022-11-14T11:52:44;17.13;;;9.85;;
36001;SDS011;22070;50.922;5.430;2022-11-14T11:55:25;19.05;;;9.88;;
36001;SDS011;22070;50.922;5.430;2022-11-14T11:58:05;17.75;;;9.40;;
36001;SDS011;22070;50.922;5.430;2022-11-14T12:00:46;18.83;;;9.55;;
36001;SDS011;22070;50.922;5.430;2022-11-14T12:03:14;17.08;;;9.25;;
36001;SDS011;22070;50.922;5.430;2022-11-14T12:05:49;16.42;;;9.57;;
36001;SDS011;22070;50.922;5.430;2022-11-14T12:08:36;17.90;;;9.27;;
36001;SDS011;22070;50.922;5.430;2022-11-14T12:11:19;18.60;;;9.45;;
36001;SDS011;22070;50.922;5.430;2022-11-14T12:16:38;16.85;;;9.48;;
36001;SDS011;22070;50.922;5.430;2022-11-14T12:22:25;14.93;;;8.63;;
36001;SDS011;22070;50.922;5.430;2022-11-14T12:25:27;16.02;;;8.82;;
36001;SDS011;22070;50.922;5.430;2022-11-14T12:31:00;15.75;;;8.85;;
36001;SDS011;22070;50.922;5.430;2022-11-14T12:33:31;16.45;;;8.95;;
36001;SDS011;22070;50.922;5.430;2022-11-14T12:36:01;14.48;;;8.52;;
36001;SDS011;22070;50.922;5.430;2022-11-14T12:38:42;13.85;;;8.55;;
36001;SDS011;22070;50.922;5.430;2022-11-14T12:41:11;15.80;;;8.57;;
36001;SDS011;22070;50.922;5.430;2022-11-14T12:43:47;16.13;;;8.63;;
36001;SDS011;22070;50.922;5.430;2022-11-14T12:46:13;16.58;;;8.90;;
36001;SDS011;22070;50.922;5.430;2022-11-14T12:48:45;16.13;;;8.52;;
36001;SDS011;22070;50.922;5.430;2022-11-14T12:53:48;15.95;;;8.32;;
36001;SDS011;22070;50.922;5.430;2022-11-14T13:01:46;14.32;;;8.27;;
36001;SDS011;22070;50.922;5.430;2022-11-14T13:04:27;12.63;;;8.20;;
36001;SDS011;22070;50.922;5.430;2022-11-14T13:12:37;13.88;;;7.85;;
36001;SDS011;22070;50.922;5.430;2022-11-14T13:15:29;11.77;;;7.68;;
36001;SDS011;22070;50.922;5.430;2022-11-14T13:18:22;14.32;;;7.70;;
36001;SDS011;22070;50.922;5.430;2022-11-14T13:21:19;15.48;;;8.52;;
36001;SDS011;22070;50.922;5.430;2022-11-14T13:24:07;15.55;;;8.13;;
36001;SDS011;22070;50.922;5.430;2022-11-14T13:26:34;17.45;;;7.82;;
36001;SDS011;22070;50.922;5.430;2022-11-14T13:34:26;14.23;;;7.78;;
36001;SDS011;22070;50.922;5.430;2022-11-14T13:40:17;11.93;;;6.93;;
36001;SDS011;22070;50.922;5.430;2022-11-14T13:45:40;11.50;;;6.30;;
36001;SDS011;22070;50.922;5.430;2022-11-14T13:50:53;11.25;;;6.88;;
36001;SDS011;22070;50.922;5.430;2022-11-14T13:53:23;14.82;;;7.10;;
36001;SDS011;22070;50.922;5.430;2022-11-14T14:09:12;14.98;;;8.77;;
36001;SDS011;22070;50.922;5.430;2022-11-14T14:12:07;13.20;;;8.38;;
36001;SDS011;22070;50.922;5.430;2022-11-14T14:17:17;14.52;;;9.15;;
36001;SDS011;22070;50.922;5.430;2022-11-14T14:30:20;13.48;;;8.23;;
36001;SDS011;22070;50.922;5.430;2022-11-14T14:35:31;12.77;;;8.52;;
36001;SDS011;22070;50.922;5.430;2022-11-14T14:37:58;11.40;;;7.55;;
36001;SDS011;22070;50.922;5.430;2022-11-14T14:40:26;14.68;;;7.22;;
36001;SDS011;22070;50.922;5.430;2022-11-14T14:42:52;11.85;;;7.80;;
36001;SDS011;22070;50.922;5.430;2022-11-14T14:45:19;9.35;;;7.10;;
36001;SDS011;22070;50.922;5.430;2022-11-14T14:47:47;12.65;;;7.68;;
36001;SDS011;22070;50.922;5.430;2022-11-14T14:50:26;11.98;;;6.85;;
36001;SDS011;22070;50.922;5.430;2022-11-14T14:55:54;10.85;;;7.13;;
36001;SDS011;22070;50.922;5.430;2022-11-14T14:58:32;11.88;;;6.80;;
36001;SDS011;22070;50.922;5.430;2022-11-14T15:01:00;11.13;;;7.00;;
36001;SDS011;22070;50.922;5.430;2022-11-14T15:03:38;11.40;;;7.68;;
36001;SDS011;22070;50.922;5.430;2022-11-14T15:06:23;11.50;;;7.45;;
36001;SDS011;22070;50.922;5.430;2022-11-14T15:08:57;11.00;;;7.07;;
36001;SDS011;22070;50.922;5.430;2022-11-14T15:11:25;12.23;;;7.43;;
36001;SDS011;22070;50.922;5.430;2022-11-14T15:13:53;13.30;;;7.57;;
36001;SDS011;22070;50.922;5.430;2022-11-14T15:16:22;10.50;;;7.30;;
36001;SDS011;22070;50.922;5.430;2022-11-14T15:18:50;11.68;;;6.90;;
36001;SDS011;22070;50.922;5.430;2022-11-14T15:21:28;12.25;;;7.32;;
36001;SDS011;22070;50.922;5.430;2022-11-14T15:23:58;12.68;;;8.10;;
36001;SDS011;22070;50.922;5.430;2022-11-14T15:26:35;12.45;;;8.52;;
36001;SDS011;22070;50.922;5.430;2022-11-14T15:29:18;13.43;;;8.45;;
36001;SDS011;22070;50.922;5.430;2022-11-14T15:31:53;15.63;;;8.60;;
36001;SDS011;22070;50.922;5.430;2022-11-14T15:34:25;13.43;;;8.23;;
36001;SDS011;22070;50.922;5.430;2022-11-14T15:37:05;12.48;;;7.88;;
36001;SDS011;22070;50.922;5.430;2022-11-14T15:39:31;15.88;;;7.57;;
36001;SDS011;22070;50.922;5.430;2022-11-14T15:42:12;14.18;;;7.88;;
36001;SDS011;22070;50.922;5.430;2022-11-14T15:44:41;13.95;;;7.90;;
36001;SDS011;22070;50.922;5.430;2022-11-14T15:47:26;12.27;;;8.20;;
36001;SDS011;22070;50.922;5.430;2022-11-14T15:49:57;14.88;;;7.70;;
36001;SDS011;22070;50.922;5.430;2022-11-14T15:55:02;12.57;;;8.45;;
36001;SDS011;22070;50.922;5.430;2022-11-14T15:57:33;13.63;;;8.65;;
36001;SDS011;22070;50.922;5.430;2022-11-14T16:00:00;13.23;;;8.02;;
36001;SDS011;22070;50.922;5.430;2022-11-14T16:02:27;15.97;;;8.80;;
36001;SDS011;22070;50.922;5.430;2022-11-14T16:04:56;12.25;;;8.02;;
36001;SDS011;22070;50.922;5.430;2022-11-14T16:07:23;15.15;;;8.90;;
36001;SDS011;22070;50.922;5.430;2022-11-14T16:09:49;17.15;;;9.32;;
36001;SDS011;22070;50.922;5.430;2022-11-14T16:12:16;19.05;;;9.40;;
36001;SDS011;22070;50.922;5.430;2022-11-14T16:14:42;18.00;;;10.13;;
36001;SDS011;22070;50.922;5.430;2022-11-14T16:17:12;20.38;;;12.85;;
36001;SDS011;22070;50.922;5.430;2022-11-14T16:19:39;17.00;;;11.00;;
36001;SDS011;22070;50.922;5.430;2022-11-14T16:22:07;16.33;;;9.65;;
36001;SDS011;22070;50.922;5.430;2022-11-14T16:24:37;18.92;;;9.95;;
36001;SDS011;22070;50.922;5.430;2022-11-14T16:27:02;14.25;;;9.30;;
36001;SDS011;22070;50.922;5.430;2022-11-14T16:29:28;15.02;;;9.77;;
36001;SDS011;22070;50.922;5.430;2022-11-14T16:31:54;23.48;;;12.45;;
36001;SDS011;22070;50.922;5.430;2022-11-14T16:34:21;48.13;;;24.50;;